createdAt,value
2023-05-02T00:00:50.719Z,7.08
2023-05-02T00:03:17.815Z,7.10
2023-05-02T00:05:44.708Z,7.16
2023-05-02T00:08:12.226Z,7.13
2023-05-02T00:10:39.212Z,7.25
2023-05-02T00:13:06.036Z,7.21
2023-05-02T00:15:33.929Z,7.26
2023-05-02T00:18:00.987Z,7.42
2023-05-02T00:20:28.103Z,7.31
2023-05-02T00:22:56.652Z,7.38
2023-05-02T00:25:23.549Z,7.28
2023-05-02T00:27:50.534Z,7.20
2023-05-02T00:30:17.891Z,7.02
2023-05-02T00:32:45.156Z,7.02
2023-05-02T00:35:12.078Z,7.16
2023-05-02T00:37:39.421Z,7.26
2023-05-02T00:40:08.319Z,7.33
2023-05-02T00:42:35.815Z,7.26
2023-05-02T00:45:05.933Z,7.37
2023-05-02T00:47:34.362Z,7.45
2023-05-02T00:50:02.208Z,7.64
2023-05-02T00:52:29.534Z,7.75
2023-05-02T00:54:57.091Z,7.81
2023-05-02T00:57:24.958Z,7.78
2023-05-02T00:59:51.779Z,7.76
2023-05-02T01:02:40.388Z,7.76
2023-05-02T01:05:44.793Z,7.77
2023-05-02T01:08:39.979Z,7.62
2023-05-02T01:11:17.735Z,7.81
2023-05-02T01:13:45.199Z,7.91
2023-05-02T01:16:12.727Z,7.17
2023-05-02T01:18:41.270Z,7.14
2023-05-02T01:21:09.484Z,7.00
2023-05-02T01:24:02.085Z,6.97
2023-05-02T01:26:34.150Z,5.53
2023-05-02T01:29:07.918Z,6.15
2023-05-02T01:31:36.916Z,6.35
2023-05-02T01:34:05.226Z,6.37
2023-05-02T01:36:32.200Z,6.45
2023-05-02T01:38:59.958Z,6.50
2023-05-02T01:41:27.628Z,6.57
2023-05-02T01:43:56.650Z,6.47
2023-05-02T01:46:25.909Z,6.47
2023-05-02T01:48:52.738Z,6.62
2023-05-02T01:51:19.677Z,6.63
2023-05-02T01:53:48.567Z,6.71
2023-05-02T01:56:16.952Z,6.83
2023-05-02T01:58:43.756Z,6.83
2023-05-02T02:01:10.840Z,6.86
2023-05-02T02:03:37.615Z,6.93
2023-05-02T02:06:04.715Z,7.03
2023-05-02T02:08:31.772Z,7.01
2023-05-02T02:11:00.099Z,7.11
2023-05-02T02:13:32.810Z,7.19
2023-05-02T02:16:01.925Z,7.38
2023-05-02T02:18:28.992Z,7.44
2023-05-02T02:20:56.734Z,5.33
2023-05-02T02:23:26.186Z,5.64
2023-05-02T02:25:53.150Z,4.94
2023-05-02T02:28:19.917Z,6.28
2023-05-02T02:30:46.728Z,6.49
2023-05-02T02:33:13.993Z,6.76
2023-05-02T02:35:42.676Z,5.82
2023-05-02T02:38:34.453Z,5.02
2023-05-02T02:41:11.268Z,4.30
2023-05-02T02:43:44.083Z,4.21
2023-05-02T02:46:34.232Z,4.50
2023-05-02T02:49:14.325Z,4.38
2023-05-02T02:51:46.354Z,4.33
2023-05-02T02:54:26.390Z,5.85
2023-05-02T02:57:02.226Z,6.41
2023-05-02T02:59:33.672Z,5.49
2023-05-02T03:02:07.913Z,4.84
2023-05-02T03:04:38.707Z,4.95
2023-05-02T03:07:05.565Z,5.39
2023-05-02T03:09:46.461Z,6.39
2023-05-02T03:12:16.722Z,5.78
2023-05-02T03:14:43.878Z,5.84
2023-05-02T03:17:11.537Z,6.07
2023-05-02T03:19:38.580Z,6.20
2023-05-02T03:22:05.810Z,6.37
2023-05-02T03:24:34.241Z,6.59
2023-05-02T03:27:01.539Z,6.77
2023-05-02T03:29:30.898Z,7.30
2023-05-02T03:31:57.820Z,7.73
2023-05-02T03:34:25.216Z,7.90
2023-05-02T03:36:52.421Z,7.71
2023-05-02T03:39:20.379Z,7.65
2023-05-02T03:41:48.118Z,8.14
2023-05-02T03:44:16.854Z,7.77
2023-05-02T03:46:44.312Z,8.07
2023-05-02T03:49:11.515Z,8.03
2023-05-02T03:51:39.559Z,8.25
2023-05-02T03:54:06.999Z,8.42
2023-05-02T03:56:35.994Z,9.79
2023-05-02T03:59:14.476Z,9.42
2023-05-02T04:01:41.433Z,9.32
2023-05-02T04:04:10.862Z,10.62
2023-05-02T04:06:44.218Z,10.19
2023-05-02T04:09:11.072Z,9.93
2023-05-02T04:11:44.149Z,10.47
2023-05-02T04:14:12.554Z,10.32
2023-05-02T04:16:39.879Z,10.80
2023-05-02T04:19:06.899Z,11.08
2023-05-02T04:21:36.669Z,11.29
2023-05-02T04:24:04.923Z,12.10
2023-05-02T04:26:32.269Z,12.20
2023-05-02T04:29:04.552Z,11.49
2023-05-02T04:31:32.398Z,12.37
2023-05-02T04:33:59.811Z,12.91
2023-05-02T04:36:29.865Z,13.49
2023-05-02T04:38:56.978Z,13.56
2023-05-02T04:41:23.777Z,12.71
2023-05-02T04:43:56.678Z,13.04
2023-05-02T04:46:23.544Z,13.95
2023-05-02T04:48:50.985Z,14.35
2023-05-02T04:51:17.702Z,14.69
2023-05-02T04:53:47.803Z,14.85
2023-05-02T04:56:14.925Z,15.27
2023-05-02T04:58:42.774Z,14.50
2023-05-02T05:01:10.755Z,13.63
2023-05-02T05:03:38.226Z,13.52
2023-05-02T05:06:06.668Z,14.54
2023-05-02T05:08:34.462Z,13.78
2023-05-02T05:11:01.299Z,13.61
2023-05-02T05:13:28.529Z,13.48
2023-05-02T05:15:55.970Z,14.68
2023-05-02T05:18:26.458Z,15.07
2023-05-02T05:20:53.437Z,15.18
2023-05-02T05:23:20.262Z,15.66
2023-05-02T05:25:47.495Z,15.91
2023-05-02T05:28:17.886Z,16.08
2023-05-02T05:30:44.647Z,16.09
2023-05-02T05:33:15.487Z,16.33
2023-05-02T05:35:42.957Z,16.76
2023-05-02T05:38:09.997Z,16.64
2023-05-02T05:40:38.776Z,16.64
2023-05-02T05:43:07.672Z,16.81
2023-05-02T05:45:37.406Z,17.11
2023-05-02T05:48:05.869Z,17.25
2023-05-02T05:50:37.822Z,17.69
2023-05-02T05:53:04.771Z,17.92
2023-05-02T05:55:32.021Z,18.29
2023-05-02T05:57:59.512Z,18.24
2023-05-02T06:00:26.630Z,17.89
2023-05-02T06:02:53.837Z,15.88
2023-05-02T06:05:33.217Z,15.39
2023-05-02T06:08:00.400Z,15.37
2023-05-02T06:10:27.132Z,15.61
2023-05-02T06:12:54.119Z,15.84
2023-05-02T06:15:24.883Z,15.53
2023-05-02T06:17:51.859Z,15.82
2023-05-02T06:20:18.956Z,16.10
2023-05-02T06:22:45.840Z,16.09
2023-05-02T06:25:13.314Z,16.01
2023-05-02T06:27:40.308Z,16.34
2023-05-02T06:30:07.986Z,17.21
2023-05-02T06:32:35.688Z,16.79
2023-05-02T06:35:02.586Z,16.43
2023-05-02T06:37:35.005Z,16.12
2023-05-02T06:40:02.748Z,16.09
2023-05-02T06:42:30.498Z,17.32
2023-05-02T06:44:57.541Z,18.28
2023-05-02T06:47:27.644Z,18.43
2023-05-02T06:49:55.289Z,18.28
2023-05-02T06:52:22.048Z,18.73
2023-05-02T06:54:49.100Z,18.92
2023-05-02T06:57:15.839Z,19.04
2023-05-02T06:59:42.724Z,19.04
2023-05-02T07:02:10.743Z,18.68
2023-05-02T07:04:37.611Z,19.07
2023-05-02T07:07:05.043Z,19.20
2023-05-02T07:09:32.407Z,19.43
2023-05-02T07:12:00.324Z,19.39
2023-05-02T07:14:28.637Z,19.71
2023-05-02T07:16:55.454Z,19.82
2023-05-02T07:19:22.360Z,19.98
2023-05-02T07:21:49.547Z,20.26
2023-05-02T07:24:16.307Z,20.15
2023-05-02T07:26:43.066Z,19.72
2023-05-02T07:29:10.007Z,20.33
2023-05-02T07:31:36.929Z,20.37
2023-05-02T07:34:03.868Z,20.37
2023-05-02T07:36:32.276Z,20.39
2023-05-02T07:38:59.076Z,20.61
2023-05-02T07:41:25.885Z,20.75
2023-05-02T07:43:52.804Z,20.86
2023-05-02T07:46:19.949Z,20.67
2023-05-02T07:48:46.921Z,18.89
2023-05-02T07:51:13.697Z,18.71
2023-05-02T07:53:40.968Z,18.93
2023-05-02T07:56:08.231Z,18.70
2023-05-02T07:58:36.583Z,19.08
2023-05-02T08:01:03.913Z,20.11
2023-05-02T08:03:31.002Z,19.91
2023-05-02T08:05:57.906Z,18.63
2023-05-02T08:08:24.685Z,18.81
2023-05-02T08:10:51.429Z,18.86
2023-05-02T08:13:18.545Z,20.11
2023-05-02T08:15:45.459Z,20.76
2023-05-02T08:18:12.354Z,20.99
2023-05-02T08:20:39.081Z,21.13
2023-05-02T08:23:05.793Z,21.38
2023-05-02T08:25:32.748Z,21.01
2023-05-02T08:27:59.508Z,21.49
2023-05-02T08:30:26.261Z,21.15
2023-05-02T08:32:53.078Z,21.23
2023-05-02T08:35:20.740Z,21.26
2023-05-02T08:37:47.529Z,21.03
2023-05-02T08:40:14.458Z,20.73
2023-05-02T08:42:43.302Z,21.10
2023-05-02T08:45:11.049Z,21.50
2023-05-02T08:47:38.358Z,21.15
2023-05-02T08:50:06.169Z,20.78
2023-05-02T08:52:33.575Z,21.07
2023-05-02T08:55:01.081Z,21.48
2023-05-02T08:57:31.199Z,21.54
2023-05-02T08:59:58.350Z,21.77
2023-05-02T09:02:55.605Z,21.87
2023-05-02T09:05:23.536Z,21.40
2023-05-02T09:07:51.047Z,20.09
2023-05-02T09:10:17.734Z,19.99
2023-05-02T09:12:45.872Z,19.62
2023-05-02T09:15:19.006Z,19.71
2023-05-02T09:17:47.928Z,20.02
2023-05-02T09:20:15.694Z,19.98
2023-05-02T09:22:50.458Z,19.63
2023-05-02T09:25:17.943Z,19.56
2023-05-02T09:27:55.352Z,19.85
2023-05-02T09:30:23.957Z,21.26
2023-05-02T09:32:51.226Z,21.37
2023-05-02T09:35:27.926Z,21.44
2023-05-02T09:37:57.561Z,21.95
2023-05-02T09:40:24.894Z,22.07
2023-05-02T09:42:52.018Z,22.03
2023-05-02T09:45:22.952Z,21.23
2023-05-02T09:47:50.561Z,21.57
2023-05-02T09:50:43.870Z,21.84
2023-05-02T09:53:11.457Z,21.82
2023-05-02T09:55:39.210Z,21.68
2023-05-02T09:58:06.118Z,22.14
2023-05-02T10:00:43.026Z,22.55
2023-05-02T10:03:10.018Z,22.84
2023-05-02T10:05:38.417Z,22.94
2023-05-02T10:08:05.769Z,22.43
2023-05-02T10:10:34.181Z,22.08
2023-05-02T10:13:01.550Z,22.14
2023-05-02T10:15:29.326Z,21.95
2023-05-02T10:17:56.117Z,22.02
2023-05-02T10:20:23.047Z,22.15
2023-05-02T10:22:50.218Z,22.47
2023-05-02T10:25:17.027Z,22.46
2023-05-02T10:27:44.436Z,22.66
2023-05-02T10:30:12.568Z,22.53
2023-05-02T10:32:40.126Z,22.41
2023-05-02T10:35:07.829Z,22.73
2023-05-02T10:37:35.959Z,22.86
2023-05-02T10:40:02.834Z,22.66
2023-05-02T10:42:29.835Z,22.95
2023-05-02T10:44:57.253Z,22.76
2023-05-02T10:47:26.258Z,22.86
2023-05-02T10:50:01.973Z,22.76
2023-05-02T10:52:37.625Z,22.50
2023-05-02T10:55:18.314Z,20.97
2023-05-02T10:57:58.172Z,20.96
2023-05-02T11:00:26.033Z,21.13
2023-05-02T11:02:52.949Z,21.35
2023-05-02T11:05:21.523Z,21.28
2023-05-02T11:07:48.280Z,21.24
2023-05-02T11:10:17.910Z,21.51
2023-05-02T11:12:48.686Z,21.64
2023-05-02T11:15:22.497Z,21.26
2023-05-02T11:18:00.928Z,21.58
2023-05-02T11:20:28.314Z,22.72
2023-05-02T11:22:56.413Z,21.79
2023-05-02T11:25:36.900Z,21.03
2023-05-02T11:28:05.881Z,21.10
2023-05-02T11:30:43.340Z,21.38
2023-05-02T11:33:11.416Z,21.34
2023-05-02T11:35:41.058Z,21.22
2023-05-02T11:38:12.288Z,21.71
2023-05-02T11:40:39.011Z,22.92
2023-05-02T11:43:13.297Z,22.98
2023-05-02T11:45:41.700Z,23.10
2023-05-02T11:48:08.989Z,23.11
2023-05-02T11:50:48.790Z,22.73
2023-05-02T11:53:39.955Z,21.38
2023-05-02T11:56:08.349Z,21.58
2023-05-02T11:58:35.500Z,21.86
2023-05-02T12:01:15.123Z,21.96
2023-05-02T12:03:42.617Z,21.90
2023-05-02T12:06:14.883Z,21.68
2023-05-02T12:08:43.051Z,22.77
2023-05-02T12:11:12.479Z,21.87
2023-05-02T12:13:47.781Z,21.76
2023-05-02T12:16:15.392Z,23.22
2023-05-02T12:18:42.494Z,23.61
2023-05-02T12:21:09.323Z,23.80
2023-05-02T12:23:37.427Z,23.55
2023-05-02T12:26:18.022Z,24.01
2023-05-02T12:28:50.263Z,24.32
2023-05-02T12:31:17.157Z,24.34
2023-05-02T12:33:47.587Z,24.49
2023-05-02T12:36:14.304Z,24.72
2023-05-02T12:38:42.531Z,24.39
2023-05-02T12:41:09.291Z,24.66
2023-05-02T12:43:49.042Z,24.94
2023-05-02T12:46:16.021Z,25.31
2023-05-02T12:48:44.221Z,25.21
2023-05-02T12:51:22.944Z,25.65
2023-05-02T12:53:49.852Z,25.74
2023-05-02T12:56:16.804Z,25.69
2023-05-02T12:58:45.223Z,26.23
2023-05-02T13:01:13.370Z,26.29
2023-05-02T13:03:41.388Z,25.94
2023-05-02T13:06:08.193Z,25.96
2023-05-02T13:08:35.729Z,26.31
2023-05-02T13:11:03.290Z,27.16
2023-05-02T13:13:30.526Z,27.28
2023-05-02T13:15:57.532Z,26.94
2023-05-02T13:18:24.593Z,26.98
2023-05-02T13:20:51.338Z,26.71
2023-05-02T13:23:18.681Z,26.87
2023-05-02T13:25:45.736Z,26.77
2023-05-02T13:28:12.569Z,26.64
2023-05-02T13:30:39.597Z,26.94
2023-05-02T13:33:06.632Z,27.00
2023-05-02T13:35:35.409Z,27.15
2023-05-02T13:38:03.135Z,26.85
2023-05-02T13:40:30.051Z,26.99
2023-05-02T13:42:57.058Z,23.39
2023-05-02T13:45:23.838Z,23.09
2023-05-02T13:47:50.743Z,23.28
2023-05-02T13:50:17.478Z,23.31
2023-05-02T13:52:45.926Z,23.35
2023-05-02T13:55:13.943Z,23.21
2023-05-02T13:57:40.672Z,23.26
2023-05-02T14:00:09.296Z,23.57
2023-05-02T14:02:36.878Z,23.40
2023-05-02T14:05:04.821Z,23.32
2023-05-02T14:07:32.581Z,23.27
2023-05-02T14:09:59.619Z,23.53
2023-05-02T14:12:26.949Z,23.96
2023-05-02T14:14:53.708Z,23.98
2023-05-02T14:17:21.167Z,23.80
2023-05-02T14:19:48.494Z,23.65
2023-05-02T14:22:15.633Z,23.34
2023-05-02T14:24:42.570Z,23.22
2023-05-02T14:27:12.496Z,23.45
2023-05-02T14:29:39.777Z,23.57
2023-05-02T14:32:06.694Z,23.49
2023-05-02T14:34:34.409Z,23.57
2023-05-02T14:37:01.364Z,23.42
2023-05-02T14:39:28.284Z,23.41
2023-05-02T14:41:55.261Z,23.32
2023-05-02T14:44:22.069Z,23.32
2023-05-02T14:46:48.873Z,23.11
2023-05-02T14:49:16.099Z,23.40
2023-05-02T14:51:46.660Z,23.44
2023-05-02T14:54:15.034Z,23.35
2023-05-02T14:56:43.134Z,23.33
2023-05-02T14:59:09.919Z,22.91
2023-05-02T15:01:37.094Z,22.64
2023-05-02T15:04:06.488Z,22.49
2023-05-02T15:06:35.432Z,22.55
2023-05-02T15:09:02.636Z,22.48
2023-05-02T15:11:29.475Z,22.54
2023-05-02T15:13:59.255Z,22.78
2023-05-02T15:16:26.543Z,22.31
2023-05-02T15:18:53.350Z,22.13
2023-05-02T15:21:20.387Z,22.01
2023-05-02T15:23:47.374Z,22.11
2023-05-02T15:26:14.099Z,22.11
2023-05-02T15:28:42.310Z,22.17
2023-05-02T15:31:08.959Z,22.26
2023-05-02T15:33:36.844Z,21.96
2023-05-02T15:36:03.784Z,21.74
2023-05-02T15:38:30.638Z,21.44
2023-05-02T15:40:58.882Z,21.25
2023-05-02T15:43:25.952Z,21.20
2023-05-02T15:45:53.915Z,21.16
2023-05-02T15:48:21.116Z,21.05
2023-05-02T15:50:47.970Z,20.86
2023-05-02T15:53:15.664Z,20.72
2023-05-02T15:55:42.923Z,20.67
2023-05-02T15:58:09.914Z,20.58
2023-05-02T16:00:36.791Z,20.39
2023-05-02T16:03:04.163Z,20.35
2023-05-02T16:05:32.430Z,20.25
2023-05-02T16:07:59.408Z,20.20
2023-05-02T16:10:26.892Z,20.09
2023-05-02T16:12:53.925Z,19.99
2023-05-02T16:15:20.931Z,20.05
2023-05-02T16:17:48.463Z,20.03
2023-05-02T16:20:16.026Z,19.93
2023-05-02T16:22:46.371Z,19.87
2023-05-02T16:25:14.038Z,19.79
2023-05-02T16:27:41.028Z,19.84
2023-05-02T16:30:08.720Z,19.81
2023-05-02T16:32:36.839Z,19.61
2023-05-02T16:35:06.675Z,19.53
2023-05-02T16:37:34.421Z,19.45
2023-05-02T16:40:01.886Z,19.37
2023-05-02T16:42:29.179Z,19.28
2023-05-02T16:44:56.757Z,19.21
2023-05-02T16:47:23.556Z,19.10
2023-05-02T16:49:55.029Z,19.04
2023-05-02T16:52:21.987Z,18.96
2023-05-02T16:54:48.844Z,18.89
2023-05-02T16:57:20.272Z,18.78
2023-05-02T16:59:48.252Z,18.72
2023-05-02T17:02:15.249Z,18.62
2023-05-02T17:04:42.483Z,18.49
2023-05-02T17:07:11.740Z,18.39
2023-05-02T17:09:40.335Z,18.28
2023-05-02T17:12:07.595Z,18.14
2023-05-02T17:14:34.477Z,18.04
2023-05-02T17:17:01.601Z,18.13
2023-05-02T17:19:29.131Z,17.93
2023-05-02T17:21:57.240Z,17.79
2023-05-02T17:24:24.568Z,17.63
2023-05-02T17:26:51.499Z,17.50
2023-05-02T17:29:18.539Z,17.36
2023-05-02T17:31:45.443Z,17.32
2023-05-02T17:34:12.542Z,17.30
2023-05-02T17:36:43.063Z,17.16
2023-05-02T17:39:12.420Z,17.06
2023-05-02T17:41:39.418Z,16.96
2023-05-02T17:44:06.464Z,16.90
2023-05-02T17:46:33.612Z,16.82
2023-05-02T17:49:00.560Z,16.72
2023-05-02T17:51:27.439Z,16.69
2023-05-02T17:53:54.252Z,16.64
2023-05-02T17:56:21.074Z,16.46
2023-05-02T17:58:48.142Z,16.45
2023-05-02T18:01:15.192Z,16.46
2023-05-02T18:03:42.930Z,16.34
2023-05-02T18:06:15.273Z,16.16
2023-05-02T18:08:43.041Z,16.08
2023-05-02T18:11:19.266Z,15.94
2023-05-02T18:13:46.465Z,15.78
2023-05-02T18:16:13.561Z,15.69
2023-05-02T18:18:41.587Z,15.77
2023-05-02T18:21:11.108Z,15.75
2023-05-02T18:23:39.554Z,15.63
2023-05-02T18:26:13.598Z,15.57
2023-05-02T18:28:44.496Z,15.55
2023-05-02T18:31:17.479Z,15.48
2023-05-02T18:33:46.091Z,15.48
2023-05-02T18:36:15.202Z,15.44
2023-05-02T18:38:41.996Z,15.36
2023-05-02T18:41:09.543Z,15.26
2023-05-02T18:43:36.901Z,15.14
2023-05-02T18:46:03.806Z,15.24
2023-05-02T18:48:31.042Z,15.44
2023-05-02T18:50:57.847Z,15.11
2023-05-02T18:53:25.862Z,15.04
2023-05-02T18:55:53.519Z,15.00
2023-05-02T18:58:21.178Z,14.84
2023-05-02T19:00:48.132Z,14.73
2023-05-02T19:03:15.306Z,15.71
2023-05-02T19:05:42.458Z,16.28
2023-05-02T19:08:09.581Z,16.41
2023-05-02T19:10:37.951Z,16.55
2023-05-02T19:13:05.039Z,14.99
2023-05-02T19:15:33.693Z,14.38
2023-05-02T19:18:00.780Z,14.30
2023-05-02T19:20:29.516Z,14.24
2023-05-02T19:23:14.798Z,14.23
2023-05-02T19:25:44.363Z,14.30
2023-05-02T19:28:11.708Z,14.27
2023-05-02T19:30:42.999Z,14.37
2023-05-02T19:33:10.118Z,14.48
2023-05-02T19:35:37.145Z,14.57
2023-05-02T19:38:04.132Z,14.56
2023-05-02T19:40:31.266Z,14.61
2023-05-02T19:42:58.134Z,14.56
2023-05-02T19:45:24.981Z,14.54
2023-05-02T19:47:51.993Z,14.52
2023-05-02T19:50:18.846Z,14.42
2023-05-02T19:52:45.850Z,14.41
2023-05-02T19:55:13.002Z,14.49
2023-05-02T19:57:40.813Z,14.45
2023-05-02T20:00:08.408Z,14.26
2023-05-02T20:02:39.749Z,14.22
2023-05-02T20:05:07.705Z,14.36
2023-05-02T20:07:35.307Z,14.33
2023-05-02T20:10:03.961Z,14.33
2023-05-02T20:12:31.352Z,14.34
2023-05-02T20:14:58.334Z,14.26
2023-05-02T20:17:25.101Z,14.44
2023-05-02T20:19:51.977Z,14.22
2023-05-02T20:22:18.841Z,14.21
2023-05-02T20:24:45.714Z,14.22
2023-05-02T20:27:12.589Z,14.21
2023-05-02T20:29:39.456Z,14.27
2023-05-02T20:32:06.210Z,14.19
2023-05-02T20:34:35.024Z,15.15
2023-05-02T20:37:04.702Z,15.17
2023-05-02T20:39:32.083Z,15.23
2023-05-02T20:41:59.020Z,14.42
2023-05-02T20:44:27.910Z,13.94
2023-05-02T20:46:54.856Z,13.87
2023-05-02T20:49:21.806Z,14.11
2023-05-02T20:51:49.625Z,13.80
2023-05-02T20:54:18.152Z,13.89
2023-05-02T20:56:44.962Z,14.20
2023-05-02T20:59:11.793Z,15.15
2023-05-02T21:01:38.720Z,15.62
2023-05-02T21:04:05.817Z,15.77
2023-05-02T21:06:34.777Z,15.88
2023-05-02T21:09:02.392Z,16.02
2023-05-02T21:11:29.432Z,15.94
2023-05-02T21:13:56.467Z,16.13
2023-05-02T21:16:23.355Z,16.10
2023-05-02T21:18:50.268Z,16.15
2023-05-02T21:21:17.177Z,16.16
2023-05-02T21:23:44.363Z,16.03
2023-05-02T21:26:11.160Z,16.45
2023-05-02T21:28:39.431Z,16.48
2023-05-02T21:31:06.640Z,16.54
2023-05-02T21:33:33.592Z,16.69
2023-05-02T21:36:00.910Z,16.73
2023-05-02T21:38:27.993Z,16.73
2023-05-02T21:40:55.279Z,16.79
2023-05-02T21:43:22.154Z,16.85
2023-05-02T21:45:49.306Z,16.82
2023-05-02T21:48:16.570Z,16.90
2023-05-02T21:50:43.907Z,16.67
2023-05-02T21:53:12.100Z,16.66
2023-05-02T21:55:39.138Z,16.63
2023-05-02T21:58:06.980Z,16.72
2023-05-02T22:00:38.895Z,16.67
2023-05-02T22:03:11.149Z,16.98
2023-05-02T22:05:39.229Z,16.86
2023-05-02T22:08:07.364Z,16.95
2023-05-02T22:10:38.108Z,16.99
2023-05-02T22:13:06.646Z,16.98
2023-05-02T22:15:33.334Z,15.44
2023-05-02T22:18:01.436Z,13.66
2023-05-02T22:20:28.801Z,13.61
2023-05-02T22:22:55.886Z,13.26
2023-05-02T22:25:22.943Z,13.14
2023-05-02T22:27:49.823Z,13.01
2023-05-02T22:30:16.838Z,13.01
2023-05-02T22:32:43.881Z,13.83
2023-05-02T22:35:10.707Z,14.19
2023-05-02T22:37:37.596Z,12.78
2023-05-02T22:40:07.653Z,12.65
2023-05-02T22:42:34.460Z,12.80
2023-05-02T22:45:01.491Z,13.48
2023-05-02T22:47:28.944Z,14.45
2023-05-02T22:49:58.988Z,14.84
2023-05-02T22:52:26.812Z,15.13
2023-05-02T22:54:53.712Z,15.03
2023-05-02T22:57:20.615Z,15.33
2023-05-02T22:59:47.424Z,15.50
2023-05-02T23:02:14.581Z,15.56
2023-05-02T23:04:41.528Z,15.59
2023-05-02T23:07:08.573Z,15.73
2023-05-02T23:09:35.518Z,15.87
2023-05-02T23:12:03.486Z,16.14
2023-05-02T23:14:31.360Z,16.18
2023-05-02T23:16:58.143Z,15.91
2023-05-02T23:19:25.451Z,15.71
2023-05-02T23:21:52.435Z,15.68
2023-05-02T23:24:19.204Z,15.82
2023-05-02T23:26:46.382Z,16.04
2023-05-02T23:29:13.324Z,16.03
2023-05-02T23:31:40.281Z,16.24
2023-05-02T23:34:07.237Z,16.48
2023-05-02T23:36:35.202Z,16.27
2023-05-02T23:39:02.233Z,16.08
2023-05-02T23:41:29.688Z,16.04
2023-05-02T23:43:56.571Z,16.16
2023-05-02T23:46:24.022Z,16.11
2023-05-02T23:48:50.898Z,16.19
2023-05-02T23:51:17.616Z,16.29
2023-05-02T23:53:44.925Z,16.17
2023-05-02T23:56:11.742Z,16.31
2023-05-02T23:58:38.458Z,16.53
